sensor_id;sensor_type;location;lat;lon;timestamp;P1;durP1;ratioP1;P2;durP2;ratioP2
5823;SDS011;2938;52.254;12.988;2023-07-31T00:01:51;18.02;;;4.65;;
5823;SDS011;2938;52.254;12.988;2023-07-31T00:04:16;11.18;;;4.82;;
5823;SDS011;2938;52.254;12.988;2023-07-31T00:06:41;6.15;;;3.80;;
5823;SDS011;2938;52.254;12.988;2023-07-31T00:09:07;4.45;;;3.90;;
5823;SDS011;2938;52.254;12.988;2023-07-31T00:11:32;13.43;;;4.18;;
5823;SDS011;2938;52.254;12.988;2023-07-31T00:13:57;5.05;;;4.28;;
5823;SDS011;2938;52.254;12.988;2023-07-31T00:16:23;7.82;;;5.88;;
5823;SDS011;2938;52.254;12.988;2023-07-31T00:18:48;6.63;;;4.28;;
5823;SDS011;2938;52.254;12.988;2023-07-31T00:21:13;8.80;;;5.55;;
5823;SDS011;2938;52.254;12.988;2023-07-31T00:23:38;7.30;;;5.10;;
5823;SDS011;2938;52.254;12.988;2023-07-31T00:26:04;5.72;;;4.90;;
5823;SDS011;2938;52.254;12.988;2023-07-31T00:28:29;10.77;;;5.70;;
5823;SDS011;2938;52.254;12.988;2023-07-31T00:30:54;8.55;;;5.07;;
5823;SDS011;2938;52.254;12.988;2023-07-31T00:33:20;8.50;;;5.03;;
5823;SDS011;2938;52.254;12.988;2023-07-31T00:35:45;19.13;;;5.45;;
5823;SDS011;2938;52.254;12.988;2023-07-31T00:38:10;4.97;;;4.40;;
5823;SDS011;2938;52.254;12.988;2023-07-31T00:40:36;7.13;;;4.43;;
5823;SDS011;2938;52.254;12.988;2023-07-31T00:43:02;6.97;;;4.95;;
5823;SDS011;2938;52.254;12.988;2023-07-31T00:45:28;11.38;;;5.53;;
5823;SDS011;2938;52.254;12.988;2023-07-31T00:47:53;14.63;;;5.60;;
5823;SDS011;2938;52.254;12.988;2023-07-31T00:50:19;16.27;;;4.85;;
5823;SDS011;2938;52.254;12.988;2023-07-31T00:52:44;14.45;;;4.65;;
5823;SDS011;2938;52.254;12.988;2023-07-31T00:55:09;15.93;;;5.03;;
5823;SDS011;2938;52.254;12.988;2023-07-31T00:57:35;8.27;;;4.93;;
5823;SDS011;2938;52.254;12.988;2023-07-31T01:00:01;5.05;;;4.35;;
5823;SDS011;2938;52.254;12.988;2023-07-31T01:02:28;8.77;;;4.10;;
5823;SDS011;2938;52.254;12.988;2023-07-31T01:04:53;12.30;;;4.70;;
5823;SDS011;2938;52.254;12.988;2023-07-31T01:07:25;5.28;;;4.80;;
5823;SDS011;2938;52.254;12.988;2023-07-31T01:09:57;9.95;;;5.43;;
5823;SDS011;2938;52.254;12.988;2023-07-31T01:14:50;9.90;;;5.37;;
5823;SDS011;2938;52.254;12.988;2023-07-31T01:17:16;10.93;;;5.63;;
5823;SDS011;2938;52.254;12.988;2023-07-31T01:19:42;13.25;;;4.40;;
5823;SDS011;2938;52.254;12.988;2023-07-31T01:28:09;8.68;;;5.40;;
5823;SDS011;2938;52.254;12.988;2023-07-31T01:30:41;11.60;;;5.03;;
5823;SDS011;2938;52.254;12.988;2023-07-31T01:33:08;6.68;;;5.03;;
5823;SDS011;2938;52.254;12.988;2023-07-31T01:35:34;7.53;;;4.80;;
5823;SDS011;2938;52.254;12.988;2023-07-31T01:38:00;8.90;;;4.72;;
5823;SDS011;2938;52.254;12.988;2023-07-31T01:40:25;6.10;;;4.03;;
5823;SDS011;2938;52.254;12.988;2023-07-31T01:42:53;12.52;;;5.68;;
5823;SDS011;2938;52.254;12.988;2023-07-31T01:45:18;11.70;;;4.15;;
5823;SDS011;2938;52.254;12.988;2023-07-31T01:47:46;10.10;;;5.45;;
5823;SDS011;2938;52.254;12.988;2023-07-31T01:50:22;11.48;;;4.93;;
5823;SDS011;2938;52.254;12.988;2023-07-31T01:52:47;12.68;;;5.53;;
5823;SDS011;2938;52.254;12.988;2023-07-31T01:55:13;16.75;;;5.25;;
5823;SDS011;2938;52.254;12.988;2023-07-31T01:57:38;9.20;;;4.18;;
5823;SDS011;2938;52.254;12.988;2023-07-31T02:00:03;8.52;;;5.22;;
5823;SDS011;2938;52.254;12.988;2023-07-31T02:02:30;9.95;;;4.88;;
5823;SDS011;2938;52.254;12.988;2023-07-31T02:04:55;7.88;;;4.80;;
5823;SDS011;2938;52.254;12.988;2023-07-31T02:07:20;7.13;;;5.03;;
5823;SDS011;2938;52.254;12.988;2023-07-31T02:09:46;8.07;;;5.32;;
5823;SDS011;2938;52.254;12.988;2023-07-31T02:12:12;9.60;;;5.15;;
5823;SDS011;2938;52.254;12.988;2023-07-31T02:14:39;8.70;;;4.75;;
5823;SDS011;2938;52.254;12.988;2023-07-31T02:17:05;11.00;;;4.57;;
5823;SDS011;2938;52.254;12.988;2023-07-31T02:19:30;9.15;;;5.32;;
5823;SDS011;2938;52.254;12.988;2023-07-31T02:21:55;11.88;;;5.15;;
5823;SDS011;2938;52.254;12.988;2023-07-31T02:24:21;6.85;;;4.30;;
5823;SDS011;2938;52.254;12.988;2023-07-31T02:26:46;10.07;;;4.82;;
5823;SDS011;2938;52.254;12.988;2023-07-31T02:29:11;12.27;;;4.93;;
5823;SDS011;2938;52.254;12.988;2023-07-31T02:31:37;8.27;;;4.07;;
5823;SDS011;2938;52.254;12.988;2023-07-31T02:34:02;7.13;;;4.78;;
5823;SDS011;2938;52.254;12.988;2023-07-31T02:36:27;9.90;;;5.32;;
5823;SDS011;2938;52.254;12.988;2023-07-31T02:38:52;12.55;;;4.78;;
5823;SDS011;2938;52.254;12.988;2023-07-31T02:41:18;10.10;;;5.13;;
5823;SDS011;2938;52.254;12.988;2023-07-31T02:43:43;9.80;;;5.20;;
5823;SDS011;2938;52.254;12.988;2023-07-31T02:46:08;7.93;;;5.63;;
5823;SDS011;2938;52.254;12.988;2023-07-31T02:48:34;10.90;;;5.38;;
5823;SDS011;2938;52.254;12.988;2023-07-31T02:50:59;7.20;;;5.18;;
5823;SDS011;2938;52.254;12.988;2023-07-31T02:53:24;8.07;;;4.93;;
5823;SDS011;2938;52.254;12.988;2023-07-31T02:55:50;7.03;;;4.53;;
5823;SDS011;2938;52.254;12.988;2023-07-31T02:58:15;10.02;;;5.22;;
5823;SDS011;2938;52.254;12.988;2023-07-31T03:00:44;9.75;;;4.68;;
5823;SDS011;2938;52.254;12.988;2023-07-31T03:03:09;7.15;;;4.45;;
5823;SDS011;2938;52.254;12.988;2023-07-31T03:05:34;7.82;;;5.57;;
5823;SDS011;2938;52.254;12.988;2023-07-31T03:08:00;8.30;;;5.43;;
5823;SDS011;2938;52.254;12.988;2023-07-31T03:10:25;8.75;;;4.28;;
5823;SDS011;2938;52.254;12.988;2023-07-31T03:12:50;8.73;;;5.10;;
5823;SDS011;2938;52.254;12.988;2023-07-31T03:15:16;10.18;;;5.05;;
5823;SDS011;2938;52.254;12.988;2023-07-31T03:17:41;5.68;;;4.25;;
5823;SDS011;2938;52.254;12.988;2023-07-31T03:20:06;7.10;;;5.30;;
5823;SDS011;2938;52.254;12.988;2023-07-31T03:22:33;12.32;;;6.25;;
5823;SDS011;2938;52.254;12.988;2023-07-31T03:25:06;8.30;;;5.57;;
5823;SDS011;2938;52.254;12.988;2023-07-31T03:27:35;9.20;;;4.75;;
5823;SDS011;2938;52.254;12.988;2023-07-31T03:30:01;12.05;;;6.43;;
5823;SDS011;2938;52.254;12.988;2023-07-31T03:32:27;12.63;;;5.55;;
5823;SDS011;2938;52.254;12.988;2023-07-31T03:34:53;9.98;;;5.18;;
5823;SDS011;2938;52.254;12.988;2023-07-31T03:37:20;8.10;;;5.35;;
5823;SDS011;2938;52.254;12.988;2023-07-31T03:39:46;9.27;;;5.57;;
5823;SDS011;2938;52.254;12.988;2023-07-31T03:42:11;10.95;;;5.72;;
5823;SDS011;2938;52.254;12.988;2023-07-31T03:44:36;7.47;;;4.70;;
5823;SDS011;2938;52.254;12.988;2023-07-31T03:47:01;7.80;;;4.70;;
5823;SDS011;2938;52.254;12.988;2023-07-31T03:49:33;6.22;;;5.25;;
5823;SDS011;2938;52.254;12.988;2023-07-31T03:52:01;9.50;;;4.70;;
5823;SDS011;2938;52.254;12.988;2023-07-31T03:54:26;8.93;;;5.80;;
5823;SDS011;2938;52.254;12.988;2023-07-31T03:56:52;11.95;;;5.47;;
5823;SDS011;2938;52.254;12.988;2023-07-31T03:59:17;6.93;;;5.30;;
5823;SDS011;2938;52.254;12.988;2023-07-31T04:01:45;8.85;;;4.57;;
5823;SDS011;2938;52.254;12.988;2023-07-31T04:04:13;11.40;;;6.43;;
5823;SDS011;2938;52.254;12.988;2023-07-31T04:06:39;9.88;;;5.05;;
5823;SDS011;2938;52.254;12.988;2023-07-31T04:09:04;18.05;;;5.43;;
5823;SDS011;2938;52.254;12.988;2023-07-31T04:11:32;9.43;;;5.05;;
5823;SDS011;2938;52.254;12.988;2023-07-31T04:14:01;10.35;;;5.22;;
5823;SDS011;2938;52.254;12.988;2023-07-31T04:16:32;18.58;;;7.13;;
5823;SDS011;2938;52.254;12.988;2023-07-31T04:18:57;7.80;;;4.68;;
5823;SDS011;2938;52.254;12.988;2023-07-31T04:21:28;15.50;;;5.35;;
5823;SDS011;2938;52.254;12.988;2023-07-31T04:23:53;7.72;;;5.50;;
5823;SDS011;2938;52.254;12.988;2023-07-31T04:26:26;9.85;;;5.72;;
5823;SDS011;2938;52.254;12.988;2023-07-31T04:28:51;11.13;;;5.63;;
5823;SDS011;2938;52.254;12.988;2023-07-31T04:31:16;10.82;;;5.35;;
5823;SDS011;2938;52.254;12.988;2023-07-31T04:33:44;14.05;;;5.97;;
5823;SDS011;2938;52.254;12.988;2023-07-31T04:36:13;8.38;;;4.93;;
5823;SDS011;2938;52.254;12.988;2023-07-31T04:39:13;13.20;;;6.05;;
5823;SDS011;2938;52.254;12.988;2023-07-31T04:41:44;12.27;;;5.90;;
5823;SDS011;2938;52.254;12.988;2023-07-31T04:44:10;8.65;;;5.57;;
5823;SDS011;2938;52.254;12.988;2023-07-31T04:46:46;8.57;;;5.78;;
5823;SDS011;2938;52.254;12.988;2023-07-31T04:49:32;12.02;;;5.97;;
5823;SDS011;2938;52.254;12.988;2023-07-31T04:51:58;13.70;;;5.07;;
5823;SDS011;2938;52.254;12.988;2023-07-31T04:54:25;13.45;;;5.78;;
5823;SDS011;2938;52.254;12.988;2023-07-31T04:56:52;12.05;;;5.18;;
5823;SDS011;2938;52.254;12.988;2023-07-31T04:59:20;14.90;;;5.70;;
5823;SDS011;2938;52.254;12.988;2023-07-31T05:01:45;11.23;;;5.60;;
5823;SDS011;2938;52.254;12.988;2023-07-31T05:07:08;11.15;;;5.18;;
5823;SDS011;2938;52.254;12.988;2023-07-31T05:09:36;5.47;;;4.90;;
5823;SDS011;2938;52.254;12.988;2023-07-31T05:12:03;7.78;;;4.57;;
5823;SDS011;2938;52.254;12.988;2023-07-31T05:17:26;11.32;;;4.15;;
5823;SDS011;2938;52.254;12.988;2023-07-31T05:19:52;6.28;;;3.97;;
5823;SDS011;2938;52.254;12.988;2023-07-31T05:22:17;7.57;;;3.45;;
5823;SDS011;2938;52.254;12.988;2023-07-31T05:24:45;13.73;;;3.67;;
5823;SDS011;2938;52.254;12.988;2023-07-31T05:27:21;4.70;;;3.25;;
5823;SDS011;2938;52.254;12.988;2023-07-31T05:29:47;6.13;;;3.72;;
5823;SDS011;2938;52.254;12.988;2023-07-31T05:32:12;18.98;;;4.03;;
5823;SDS011;2938;52.254;12.988;2023-07-31T05:38:00;8.30;;;4.07;;
5823;SDS011;2938;52.254;12.988;2023-07-31T05:40:26;11.43;;;3.75;;
5823;SDS011;2938;52.254;12.988;2023-07-31T05:42:52;9.30;;;3.53;;
5823;SDS011;2938;52.254;12.988;2023-07-31T05:45:17;10.20;;;3.90;;
5823;SDS011;2938;52.254;12.988;2023-07-31T05:47:43;11.68;;;4.47;;
5823;SDS011;2938;52.254;12.988;2023-07-31T05:50:08;7.78;;;3.67;;
5823;SDS011;2938;52.254;12.988;2023-07-31T05:52:34;17.83;;;4.10;;
5823;SDS011;2938;52.254;12.988;2023-07-31T05:55:04;8.02;;;3.97;;
5823;SDS011;2938;52.254;12.988;2023-07-31T05:57:40;10.57;;;3.42;;
5823;SDS011;2938;52.254;12.988;2023-07-31T06:00:09;8.07;;;3.75;;
5823;SDS011;2938;52.254;12.988;2023-07-31T06:02:52;5.80;;;3.03;;
5823;SDS011;2938;52.254;12.988;2023-07-31T06:05:20;10.35;;;3.35;;
5823;SDS011;2938;52.254;12.988;2023-07-31T06:07:56;5.30;;;4.35;;
5823;SDS011;2938;52.254;12.988;2023-07-31T06:10:42;9.18;;;3.92;;
5823;SDS011;2938;52.254;12.988;2023-07-31T06:16:23;6.45;;;3.53;;
5823;SDS011;2938;52.254;12.988;2023-07-31T06:19:15;6.25;;;4.20;;
5823;SDS011;2938;52.254;12.988;2023-07-31T06:21:40;11.20;;;4.65;;
5823;SDS011;2938;52.254;12.988;2023-07-31T06:37:08;10.65;;;4.32;;
5823;SDS011;2938;52.254;12.988;2023-07-31T06:39:37;12.85;;;4.47;;
5823;SDS011;2938;52.254;12.988;2023-07-31T06:42:03;7.30;;;4.63;;
5823;SDS011;2938;52.254;12.988;2023-07-31T06:44:54;10.05;;;4.60;;
5823;SDS011;2938;52.254;12.988;2023-07-31T06:47:20;8.25;;;4.30;;
5823;SDS011;2938;52.254;12.988;2023-07-31T06:49:45;9.93;;;4.05;;
5823;SDS011;2938;52.254;12.988;2023-07-31T06:52:10;12.25;;;4.97;;
5823;SDS011;2938;52.254;12.988;2023-07-31T06:54:36;9.63;;;4.82;;
5823;SDS011;2938;52.254;12.988;2023-07-31T06:57:01;6.72;;;4.78;;
5823;SDS011;2938;52.254;12.988;2023-07-31T06:59:27;12.07;;;5.60;;
5823;SDS011;2938;52.254;12.988;2023-07-31T07:01:52;8.32;;;5.30;;
5823;SDS011;2938;52.254;12.988;2023-07-31T07:04:18;8.82;;;4.97;;
5823;SDS011;2938;52.254;12.988;2023-07-31T07:06:43;11.93;;;4.95;;
5823;SDS011;2938;52.254;12.988;2023-07-31T07:09:09;7.20;;;5.22;;
5823;SDS011;2938;52.254;12.988;2023-07-31T07:11:34;9.48;;;5.28;;
5823;SDS011;2938;52.254;12.988;2023-07-31T07:14:08;11.02;;;5.63;;
5823;SDS011;2938;52.254;12.988;2023-07-31T07:16:34;14.98;;;6.75;;
5823;SDS011;2938;52.254;12.988;2023-07-31T07:18:59;9.05;;;4.97;;
5823;SDS011;2938;52.254;12.988;2023-07-31T07:21:24;13.07;;;6.05;;
5823;SDS011;2938;52.254;12.988;2023-07-31T07:23:50;10.85;;;5.15;;
5823;SDS011;2938;52.254;12.988;2023-07-31T07:26:15;11.98;;;5.80;;
5823;SDS011;2938;52.254;12.988;2023-07-31T07:28:40;11.80;;;5.50;;
5823;SDS011;2938;52.254;12.988;2023-07-31T07:31:06;6.47;;;5.10;;
5823;SDS011;2938;52.254;12.988;2023-07-31T07:33:34;9.63;;;5.88;;
5823;SDS011;2938;52.254;12.988;2023-07-31T07:36:00;11.95;;;5.35;;
5823;SDS011;2938;52.254;12.988;2023-07-31T07:38:26;10.15;;;5.93;;
5823;SDS011;2938;52.254;12.988;2023-07-31T07:40:52;7.63;;;3.95;;
5823;SDS011;2938;52.254;12.988;2023-07-31T07:43:18;16.08;;;6.00;;
5823;SDS011;2938;52.254;12.988;2023-07-31T07:45:43;6.80;;;5.50;;
5823;SDS011;2938;52.254;12.988;2023-07-31T07:48:27;6.70;;;4.53;;
5823;SDS011;2938;52.254;12.988;2023-07-31T07:50:52;10.45;;;5.13;;
5823;SDS011;2938;52.254;12.988;2023-07-31T07:53:17;7.28;;;4.38;;
5823;SDS011;2938;52.254;12.988;2023-07-31T07:55:43;9.23;;;4.30;;
5823;SDS011;2938;52.254;12.988;2023-07-31T07:58:17;8.65;;;5.00;;
5823;SDS011;2938;52.254;12.988;2023-07-31T08:00:48;18.52;;;5.07;;
5823;SDS011;2938;52.254;12.988;2023-07-31T08:03:37;5.93;;;3.88;;
5823;SDS011;2938;52.254;12.988;2023-07-31T08:06:09;16.85;;;6.15;;
5823;SDS011;2938;52.254;12.988;2023-07-31T08:08:42;11.20;;;4.82;;
5823;SDS011;2938;52.254;12.988;2023-07-31T08:11:22;11.43;;;4.22;;
5823;SDS011;2938;52.254;12.988;2023-07-31T08:14:00;8.93;;;4.00;;
5823;SDS011;2938;52.254;12.988;2023-07-31T08:16:28;13.55;;;4.30;;
5823;SDS011;2938;52.254;12.988;2023-07-31T08:22:30;4.78;;;3.17;;
5823;SDS011;2938;52.254;12.988;2023-07-31T08:24:56;3.80;;;2.60;;
5823;SDS011;2938;52.254;12.988;2023-07-31T08:30:20;4.63;;;3.15;;
5823;SDS011;2938;52.254;12.988;2023-07-31T08:32:46;5.35;;;2.75;;
5823;SDS011;2938;52.254;12.988;2023-07-31T08:35:11;5.15;;;2.83;;
5823;SDS011;2938;52.254;12.988;2023-07-31T08:37:37;5.90;;;3.22;;
5823;SDS011;2938;52.254;12.988;2023-07-31T08:40:03;4.82;;;3.20;;
5823;SDS011;2938;52.254;12.988;2023-07-31T08:42:29;4.47;;;2.75;;
5823;SDS011;2938;52.254;12.988;2023-07-31T08:44:55;7.47;;;3.95;;
5823;SDS011;2938;52.254;12.988;2023-07-31T08:47:21;6.18;;;3.75;;
5823;SDS011;2938;52.254;12.988;2023-07-31T08:49:47;7.15;;;3.63;;
5823;SDS011;2938;52.254;12.988;2023-07-31T08:52:13;7.85;;;3.75;;
5823;SDS011;2938;52.254;12.988;2023-07-31T08:54:56;5.28;;;3.72;;
5823;SDS011;2938;52.254;12.988;2023-07-31T08:57:21;7.93;;;4.75;;
5823;SDS011;2938;52.254;12.988;2023-07-31T08:59:55;9.18;;;5.25;;
5823;SDS011;2938;52.254;12.988;2023-07-31T09:05:35;10.63;;;5.53;;
5823;SDS011;2938;52.254;12.988;2023-07-31T09:08:04;10.30;;;5.45;;
5823;SDS011;2938;52.254;12.988;2023-07-31T09:10:35;8.77;;;5.30;;
5823;SDS011;2938;52.254;12.988;2023-07-31T09:13:00;7.40;;;4.28;;
5823;SDS011;2938;52.254;12.988;2023-07-31T09:15:27;8.32;;;4.07;;
5823;SDS011;2938;52.254;12.988;2023-07-31T09:18:00;16.60;;;6.05;;
5823;SDS011;2938;52.254;12.988;2023-07-31T09:23:27;9.45;;;5.28;;
5823;SDS011;2938;52.254;12.988;2023-07-31T09:26:05;13.50;;;5.65;;
5823;SDS011;2938;52.254;12.988;2023-07-31T09:28:30;9.27;;;5.55;;
5823;SDS011;2938;52.254;12.988;2023-07-31T09:30:56;8.90;;;5.35;;
5823;SDS011;2938;52.254;12.988;2023-07-31T09:33:21;6.00;;;4.80;;
5823;SDS011;2938;52.254;12.988;2023-07-31T09:35:47;8.73;;;5.53;;
5823;SDS011;2938;52.254;12.988;2023-07-31T09:38:15;9.65;;;4.95;;
5823;SDS011;2938;52.254;12.988;2023-07-31T09:40:42;12.50;;;4.85;;
5823;SDS011;2938;52.254;12.988;2023-07-31T09:43:11;12.55;;;5.80;;
5823;SDS011;2938;52.254;12.988;2023-07-31T09:45:39;7.20;;;4.63;;
5823;SDS011;2938;52.254;12.988;2023-07-31T09:48:09;13.45;;;4.80;;
5823;SDS011;2938;52.254;12.988;2023-07-31T09:50:39;9.15;;;5.30;;
5823;SDS011;2938;52.254;12.988;2023-07-31T09:53:08;6.85;;;5.95;;
5823;SDS011;2938;52.254;12.988;2023-07-31T09:55:34;10.23;;;5.47;;
5823;SDS011;2938;52.254;12.988;2023-07-31T09:58:02;13.98;;;5.85;;
5823;SDS011;2938;52.254;12.988;2023-07-31T10:00:29;15.45;;;6.00;;
5823;SDS011;2938;52.254;12.988;2023-07-31T10:02:55;10.77;;;5.75;;
5823;SDS011;2938;52.254;12.988;2023-07-31T10:05:23;8.75;;;5.50;;
5823;SDS011;2938;52.254;12.988;2023-07-31T10:07:53;8.88;;;5.45;;
5823;SDS011;2938;52.254;12.988;2023-07-31T10:10:20;8.85;;;6.22;;
5823;SDS011;2938;52.254;12.988;2023-07-31T10:12:48;18.80;;;6.38;;
5823;SDS011;2938;52.254;12.988;2023-07-31T10:15:14;13.75;;;5.53;;
5823;SDS011;2938;52.254;12.988;2023-07-31T10:17:40;12.63;;;4.32;;
5823;SDS011;2938;52.254;12.988;2023-07-31T10:20:05;14.05;;;5.93;;
5823;SDS011;2938;52.254;12.988;2023-07-31T10:22:31;9.50;;;4.38;;
5823;SDS011;2938;52.254;12.988;2023-07-31T10:24:58;16.30;;;6.38;;
5823;SDS011;2938;52.254;12.988;2023-07-31T10:27:24;15.02;;;4.43;;
5823;SDS011;2938;52.254;12.988;2023-07-31T10:29:49;6.60;;;4.15;;
5823;SDS011;2938;52.254;12.988;2023-07-31T10:32:15;11.85;;;5.43;;
5823;SDS011;2938;52.254;12.988;2023-07-31T10:34:41;9.25;;;4.75;;
5823;SDS011;2938;52.254;12.988;2023-07-31T10:37:28;6.93;;;3.92;;
5823;SDS011;2938;52.254;12.988;2023-07-31T10:40:05;8.25;;;4.15;;
5823;SDS011;2938;52.254;12.988;2023-07-31T10:42:48;6.78;;;4.18;;
5823;SDS011;2938;52.254;12.988;2023-07-31T10:45:23;7.03;;;4.25;;
5823;SDS011;2938;52.254;12.988;2023-07-31T10:47:59;8.20;;;4.35;;
5823;SDS011;2938;52.254;12.988;2023-07-31T10:50:28;6.95;;;3.67;;
5823;SDS011;2938;52.254;12.988;2023-07-31T10:52:55;11.73;;;3.72;;
5823;SDS011;2938;52.254;12.988;2023-07-31T10:55:25;9.57;;;4.38;;
5823;SDS011;2938;52.254;12.988;2023-07-31T10:57:57;5.55;;;3.88;;
5823;SDS011;2938;52.254;12.988;2023-07-31T11:00:30;8.13;;;4.28;;
5823;SDS011;2938;52.254;12.988;2023-07-31T11:02:56;8.80;;;3.38;;
5823;SDS011;2938;52.254;12.988;2023-07-31T11:08:12;10.93;;;4.40;;
5823;SDS011;2938;52.254;12.988;2023-07-31T11:10:45;6.63;;;4.35;;
5823;SDS011;2938;52.254;12.988;2023-07-31T11:13:12;11.65;;;3.42;;
5823;SDS011;2938;52.254;12.988;2023-07-31T11:15:38;7.40;;;3.58;;
5823;SDS011;2938;52.254;12.988;2023-07-31T11:18:03;4.00;;;3.47;;
5823;SDS011;2938;52.254;12.988;2023-07-31T11:20:30;7.88;;;4.65;;
5823;SDS011;2938;52.254;12.988;2023-07-31T11:23:04;15.82;;;4.07;;
5823;SDS011;2938;52.254;12.988;2023-07-31T11:25:31;8.18;;;4.95;;
5823;SDS011;2938;52.254;12.988;2023-07-31T11:28:04;7.78;;;4.28;;
5823;SDS011;2938;52.254;12.988;2023-07-31T11:30:30;5.55;;;3.70;;
5823;SDS011;2938;52.254;12.988;2023-07-31T11:32:55;5.68;;;3.10;;
5823;SDS011;2938;52.254;12.988;2023-07-31T11:35:20;6.22;;;4.68;;
5823;SDS011;2938;52.254;12.988;2023-07-31T11:37:47;6.43;;;3.63;;
5823;SDS011;2938;52.254;12.988;2023-07-31T11:40:13;7.93;;;4.28;;
5823;SDS011;2938;52.254;12.988;2023-07-31T11:42:41;14.07;;;4.63;;
5823;SDS011;2938;52.254;12.988;2023-07-31T11:45:07;10.15;;;4.53;;
5823;SDS011;2938;52.254;12.988;2023-07-31T11:47:34;7.78;;;3.72;;
5823;SDS011;2938;52.254;12.988;2023-07-31T11:50:01;11.90;;;4.38;;
5823;SDS011;2938;52.254;12.988;2023-07-31T11:52:31;6.03;;;3.50;;
5823;SDS011;2938;52.254;12.988;2023-07-31T11:57:25;7.97;;;3.45;;
5823;SDS011;2938;52.254;12.988;2023-07-31T11:59:50;4.63;;;2.72;;
5823;SDS011;2938;52.254;12.988;2023-07-31T12:02:16;5.43;;;3.58;;
5823;SDS011;2938;52.254;12.988;2023-07-31T12:04:42;8.50;;;3.67;;
5823;SDS011;2938;52.254;12.988;2023-07-31T12:07:08;7.28;;;3.10;;
5823;SDS011;2938;52.254;12.988;2023-07-31T12:09:33;6.27;;;2.63;;
5823;SDS011;2938;52.254;12.988;2023-07-31T12:11:58;6.47;;;2.22;;
5823;SDS011;2938;52.254;12.988;2023-07-31T12:14:26;5.03;;;3.10;;
5823;SDS011;2938;52.254;12.988;2023-07-31T12:17:01;4.40;;;2.28;;
5823;SDS011;2938;52.254;12.988;2023-07-31T12:19:29;9.05;;;3.05;;
5823;SDS011;2938;52.254;12.988;2023-07-31T12:22:01;6.55;;;3.13;;
5823;SDS011;2938;52.254;12.988;2023-07-31T12:24:27;5.13;;;3.70;;
5823;SDS011;2938;52.254;12.988;2023-07-31T12:26:52;3.63;;;2.63;;
5823;SDS011;2938;52.254;12.988;2023-07-31T12:29:19;5.40;;;3.20;;
5823;SDS011;2938;52.254;12.988;2023-07-31T12:31:45;11.65;;;3.97;;
5823;SDS011;2938;52.254;12.988;2023-07-31T12:34:16;9.82;;;3.20;;
5823;SDS011;2938;52.254;12.988;2023-07-31T12:36:43;8.02;;;2.92;;
5823;SDS011;2938;52.254;12.988;2023-07-31T12:39:08;5.22;;;3.88;;
5823;SDS011;2938;52.254;12.988;2023-07-31T12:41:34;5.35;;;3.38;;
5823;SDS011;2938;52.254;12.988;2023-07-31T12:43:59;5.45;;;3.80;;
5823;SDS011;2938;52.254;12.988;2023-07-31T12:46:25;7.68;;;4.18;;
5823;SDS011;2938;52.254;12.988;2023-07-31T12:48:50;7.97;;;3.50;;
5823;SDS011;2938;52.254;12.988;2023-07-31T12:51:16;7.60;;;3.95;;
5823;SDS011;2938;52.254;12.988;2023-07-31T12:53:41;11.65;;;4.20;;
5823;SDS011;2938;52.254;12.988;2023-07-31T12:56:07;6.25;;;3.78;;
5823;SDS011;2938;52.254;12.988;2023-07-31T12:58:32;7.28;;;3.90;;
5823;SDS011;2938;52.254;12.988;2023-07-31T13:01:00;6.57;;;3.63;;
5823;SDS011;2938;52.254;12.988;2023-07-31T13:03:26;5.75;;;4.22;;
5823;SDS011;2938;52.254;12.988;2023-07-31T13:05:52;7.93;;;4.60;;
5823;SDS011;2938;52.254;12.988;2023-07-31T13:08:20;8.07;;;5.00;;
5823;SDS011;2938;52.254;12.988;2023-07-31T13:10:46;4.05;;;3.40;;
5823;SDS011;2938;52.254;12.988;2023-07-31T13:13:11;10.52;;;4.53;;
5823;SDS011;2938;52.254;12.988;2023-07-31T13:15:36;9.45;;;4.28;;
5823;SDS011;2938;52.254;12.988;2023-07-31T13:18:02;7.57;;;4.30;;
5823;SDS011;2938;52.254;12.988;2023-07-31T13:20:27;10.20;;;4.25;;
5823;SDS011;2938;52.254;12.988;2023-07-31T13:22:52;9.57;;;4.18;;
5823;SDS011;2938;52.254;12.988;2023-07-31T13:25:17;6.17;;;3.97;;
5823;SDS011;2938;52.254;12.988;2023-07-31T13:27:43;9.68;;;3.80;;
5823;SDS011;2938;52.254;12.988;2023-07-31T13:30:08;5.57;;;3.40;;
5823;SDS011;2938;52.254;12.988;2023-07-31T13:32:34;6.47;;;3.53;;
5823;SDS011;2938;52.254;12.988;2023-07-31T13:35:04;7.13;;;4.05;;
5823;SDS011;2938;52.254;12.988;2023-07-31T13:37:32;6.30;;;4.32;;
5823;SDS011;2938;52.254;12.988;2023-07-31T13:40:00;7.07;;;4.28;;
5823;SDS011;2938;52.254;12.988;2023-07-31T13:42:26;9.43;;;3.67;;
5823;SDS011;2938;52.254;12.988;2023-07-31T13:44:53;8.77;;;4.45;;
5823;SDS011;2938;52.254;12.988;2023-07-31T13:47:18;6.28;;;3.22;;
5823;SDS011;2938;52.254;12.988;2023-07-31T13:49:44;4.32;;;3.50;;
5823;SDS011;2938;52.254;12.988;2023-07-31T13:52:09;5.85;;;3.40;;
5823;SDS011;2938;52.254;12.988;2023-07-31T13:54:34;5.63;;;4.23;;
5823;SDS011;2938;52.254;12.988;2023-07-31T13:57:03;11.87;;;3.90;;
5823;SDS011;2938;52.254;12.988;2023-07-31T13:59:28;6.15;;;3.10;;
5823;SDS011;2938;52.254;12.988;2023-07-31T14:01:53;6.97;;;3.60;;
5823;SDS011;2938;52.254;12.988;2023-07-31T14:04:19;7.43;;;4.03;;
5823;SDS011;2938;52.254;12.988;2023-07-31T14:06:44;6.95;;;3.28;;
5823;SDS011;2938;52.254;12.988;2023-07-31T14:09:09;4.80;;;2.90;;
5823;SDS011;2938;52.254;12.988;2023-07-31T14:11:35;5.60;;;3.63;;
5823;SDS011;2938;52.254;12.988;2023-07-31T14:14:00;5.53;;;3.13;;
5823;SDS011;2938;52.254;12.988;2023-07-31T14:16:29;4.43;;;3.15;;
5823;SDS011;2938;52.254;12.988;2023-07-31T14:18:57;7.72;;;3.95;;
5823;SDS011;2938;52.254;12.988;2023-07-31T14:21:24;5.93;;;3.33;;
5823;SDS011;2938;52.254;12.988;2023-07-31T14:23:50;9.23;;;4.90;;
5823;SDS011;2938;52.254;12.988;2023-07-31T14:26:15;8.75;;;3.47;;
5823;SDS011;2938;52.254;12.988;2023-07-31T14:28:41;7.15;;;3.53;;
5823;SDS011;2938;52.254;12.988;2023-07-31T14:31:07;6.28;;;3.90;;
5823;SDS011;2938;52.254;12.988;2023-07-31T14:33:38;8.87;;;4.70;;
5823;SDS011;2938;52.254;12.988;2023-07-31T14:36:06;11.63;;;4.50;;
5823;SDS011;2938;52.254;12.988;2023-07-31T14:38:31;10.98;;;4.40;;
5823;SDS011;2938;52.254;12.988;2023-07-31T14:40:56;3.53;;;2.97;;
5823;SDS011;2938;52.254;12.988;2023-07-31T14:43:22;4.80;;;3.10;;
5823;SDS011;2938;52.254;12.988;2023-07-31T14:45:47;6.93;;;3.75;;
5823;SDS011;2938;52.254;12.988;2023-07-31T14:48:12;7.25;;;4.13;;
5823;SDS011;2938;52.254;12.988;2023-07-31T14:50:41;5.32;;;3.47;;
5823;SDS011;2938;52.254;12.988;2023-07-31T14:53:06;5.03;;;3.88;;
5823;SDS011;2938;52.254;12.988;2023-07-31T14:55:31;4.93;;;3.72;;
5823;SDS011;2938;52.254;12.988;2023-07-31T14:57:57;4.93;;;3.47;;
5823;SDS011;2938;52.254;12.988;2023-07-31T15:00:22;5.78;;;3.42;;
5823;SDS011;2938;52.254;12.988;2023-07-31T15:02:55;8.32;;;4.78;;
5823;SDS011;2938;52.254;12.988;2023-07-31T15:05:26;9.43;;;4.60;;
5823;SDS011;2938;52.254;12.988;2023-07-31T15:28:14;5.43;;;3.22;;
5823;SDS011;2938;52.254;12.988;2023-07-31T15:31:25;8.25;;;3.63;;
5823;SDS011;2938;52.254;12.988;2023-07-31T15:35:04;10.68;;;4.18;;
5823;SDS011;2938;52.254;12.988;2023-07-31T15:37:49;5.55;;;3.92;;
5823;SDS011;2938;52.254;12.988;2023-07-31T15:40:20;12.25;;;3.92;;
5823;SDS011;2938;52.254;12.988;2023-07-31T15:42:46;11.02;;;4.65;;
5823;SDS011;2938;52.254;12.988;2023-07-31T15:45:19;6.20;;;4.20;;
5823;SDS011;2938;52.254;12.988;2023-07-31T15:47:48;7.32;;;4.22;;
5823;SDS011;2938;52.254;12.988;2023-07-31T15:50:16;11.52;;;4.03;;
5823;SDS011;2938;52.254;12.988;2023-07-31T18:37:25;5.07;;;3.45;;
5823;SDS011;2938;52.254;12.988;2023-07-31T19:19:11;4.95;;;4.25;;
5823;SDS011;2938;52.254;12.988;2023-07-31T19:21:39;8.82;;;3.50;;
5823;SDS011;2938;52.254;12.988;2023-07-31T19:24:08;8.33;;;3.70;;
5823;SDS011;2938;52.254;12.988;2023-07-31T19:26:38;6.80;;;3.85;;
5823;SDS011;2938;52.254;12.988;2023-07-31T19:29:04;7.63;;;4.03;;
5823;SDS011;2938;52.254;12.988;2023-07-31T19:31:32;10.68;;;4.30;;
5823;SDS011;2938;52.254;12.988;2023-07-31T19:37:22;7.28;;;3.45;;
5823;SDS011;2938;52.254;12.988;2023-07-31T19:39:47;10.55;;;4.97;;
5823;SDS011;2938;52.254;12.988;2023-07-31T19:42:16;10.80;;;5.70;;